sensor_id;sensor_type;location;lat;lon;timestamp;P1;durP1;ratioP1;P2;durP2;ratioP2
7289;SDS011;63176;52.678;13.250;2023-06-22T00:02:18;14.73;;;11.73;;
7289;SDS011;63176;52.678;13.250;2023-06-22T00:04:44;14.50;;;11.77;;
7289;SDS011;63176;52.678;13.250;2023-06-22T00:07:10;15.80;;;11.50;;
7289;SDS011;63176;52.678;13.250;2023-06-22T00:09:35;15.57;;;11.53;;
7289;SDS011;63176;52.678;13.250;2023-06-22T00:12:01;17.03;;;13.00;;
7289;SDS011;63176;52.678;13.250;2023-06-22T00:14:27;16.03;;;12.10;;
7289;SDS011;63176;52.678;13.250;2023-06-22T00:16:52;14.83;;;10.73;;
7289;SDS011;63176;52.678;13.250;2023-06-22T00:19:22;16.30;;;12.23;;
7289;SDS011;63176;52.678;13.250;2023-06-22T00:21:48;15.47;;;11.90;;
7289;SDS011;63176;52.678;13.250;2023-06-22T00:24:18;15.73;;;11.30;;
7289;SDS011;63176;52.678;13.250;2023-06-22T00:26:44;13.03;;;10.80;;
7289;SDS011;63176;52.678;13.250;2023-06-22T00:29:10;16.37;;;12.37;;
7289;SDS011;63176;52.678;13.250;2023-06-22T00:31:36;15.00;;;10.77;;
7289;SDS011;63176;52.678;13.250;2023-06-22T00:34:01;17.07;;;11.97;;
7289;SDS011;63176;52.678;13.250;2023-06-22T00:36:27;16.00;;;11.40;;
7289;SDS011;63176;52.678;13.250;2023-06-22T00:38:52;17.83;;;12.70;;
7289;SDS011;63176;52.678;13.250;2023-06-22T00:41:18;17.17;;;12.33;;
7289;SDS011;63176;52.678;13.250;2023-06-22T00:43:44;13.43;;;11.73;;
7289;SDS011;63176;52.678;13.250;2023-06-22T00:46:10;15.20;;;11.33;;
7289;SDS011;63176;52.678;13.250;2023-06-22T00:48:36;14.93;;;11.03;;
7289;SDS011;63176;52.678;13.250;2023-06-22T00:51:02;15.20;;;11.40;;
7289;SDS011;63176;52.678;13.250;2023-06-22T00:53:28;16.10;;;11.80;;
7289;SDS011;63176;52.678;13.250;2023-06-22T00:55:53;15.17;;;11.40;;
7289;SDS011;63176;52.678;13.250;2023-06-22T00:58:20;17.03;;;12.37;;
7289;SDS011;63176;52.678;13.250;2023-06-22T01:00:46;12.10;;;9.70;;
7289;SDS011;63176;52.678;13.250;2023-06-22T01:03:12;14.90;;;11.60;;
7289;SDS011;63176;52.678;13.250;2023-06-22T01:05:39;15.20;;;10.87;;
7289;SDS011;63176;52.678;13.250;2023-06-22T01:14:45;14.70;;;10.80;;
7289;SDS011;63176;52.678;13.250;2023-06-22T01:17:08;12.43;;;10.10;;
7289;SDS011;63176;52.678;13.250;2023-06-22T01:22:08;13.40;;;9.97;;
7289;SDS011;63176;52.678;13.250;2023-06-22T01:29:58;14.17;;;10.63;;
7289;SDS011;63176;52.678;13.250;2023-06-22T01:32:35;12.63;;;9.80;;
7289;SDS011;63176;52.678;13.250;2023-06-22T01:35:03;12.13;;;10.13;;
7289;SDS011;63176;52.678;13.250;2023-06-22T01:37:31;12.40;;;10.03;;
7289;SDS011;63176;52.678;13.250;2023-06-22T01:39:58;14.60;;;10.30;;
7289;SDS011;63176;52.678;13.250;2023-06-22T01:42:25;12.23;;;9.63;;
7289;SDS011;63176;52.678;13.250;2023-06-22T01:44:52;13.43;;;10.03;;
7289;SDS011;63176;52.678;13.250;2023-06-22T01:47:21;15.40;;;10.33;;
7289;SDS011;63176;52.678;13.250;2023-06-22T01:49:48;12.90;;;10.60;;
7289;SDS011;63176;52.678;13.250;2023-06-22T01:52:14;12.47;;;10.37;;
7289;SDS011;63176;52.678;13.250;2023-06-22T01:54:41;14.60;;;10.70;;
7289;SDS011;63176;52.678;13.250;2023-06-22T01:57:07;14.73;;;11.23;;
7289;SDS011;63176;52.678;13.250;2023-06-22T02:02:27;16.17;;;10.97;;
7289;SDS011;63176;52.678;13.250;2023-06-22T02:05:04;15.00;;;9.80;;
7289;SDS011;63176;52.678;13.250;2023-06-22T02:07:32;16.70;;;11.23;;
7289;SDS011;63176;52.678;13.250;2023-06-22T02:10:04;13.47;;;10.20;;
7289;SDS011;63176;52.678;13.250;2023-06-22T02:12:32;14.33;;;10.80;;
7289;SDS011;63176;52.678;13.250;2023-06-22T02:15:00;15.23;;;10.23;;
7289;SDS011;63176;52.678;13.250;2023-06-22T02:17:26;14.87;;;10.90;;
7289;SDS011;63176;52.678;13.250;2023-06-22T02:19:52;13.40;;;10.10;;
7289;SDS011;63176;52.678;13.250;2023-06-22T02:22:18;17.00;;;10.60;;
7289;SDS011;63176;52.678;13.250;2023-06-22T02:24:44;14.73;;;10.97;;
7289;SDS011;63176;52.678;13.250;2023-06-22T02:27:10;14.70;;;10.87;;
7289;SDS011;63176;52.678;13.250;2023-06-22T02:29:36;16.70;;;10.90;;
7289;SDS011;63176;52.678;13.250;2023-06-22T02:32:02;12.23;;;9.33;;
7289;SDS011;63176;52.678;13.250;2023-06-22T02:34:29;13.50;;;10.60;;
7289;SDS011;63176;52.678;13.250;2023-06-22T02:36:54;16.13;;;10.70;;
7289;SDS011;63176;52.678;13.250;2023-06-22T02:39:21;12.20;;;9.90;;
7289;SDS011;63176;52.678;13.250;2023-06-22T02:41:51;15.97;;;10.73;;
7289;SDS011;63176;52.678;13.250;2023-06-22T02:44:18;13.87;;;9.60;;
7289;SDS011;63176;52.678;13.250;2023-06-22T02:46:45;13.63;;;10.83;;
7289;SDS011;63176;52.678;13.250;2023-06-22T02:49:12;14.70;;;10.17;;
7289;SDS011;63176;52.678;13.250;2023-06-22T02:51:42;13.30;;;10.37;;
7289;SDS011;63176;52.678;13.250;2023-06-22T02:54:10;12.97;;;10.53;;
7289;SDS011;63176;52.678;13.250;2023-06-22T02:56:36;14.87;;;10.10;;
7289;SDS011;63176;52.678;13.250;2023-06-22T02:59:02;15.27;;;10.93;;
7289;SDS011;63176;52.678;13.250;2023-06-22T03:01:28;15.10;;;10.03;;
7289;SDS011;63176;52.678;13.250;2023-06-22T03:03:55;14.23;;;10.17;;
7289;SDS011;63176;52.678;13.250;2023-06-22T03:06:21;13.50;;;9.83;;
7289;SDS011;63176;52.678;13.250;2023-06-22T03:08:48;14.00;;;10.80;;
7289;SDS011;63176;52.678;13.250;2023-06-22T03:11:16;12.50;;;9.80;;
7289;SDS011;63176;52.678;13.250;2023-06-22T03:13:42;12.73;;;9.60;;
7289;SDS011;63176;52.678;13.250;2023-06-22T03:16:08;12.80;;;9.70;;
7289;SDS011;63176;52.678;13.250;2023-06-22T03:18:34;10.47;;;9.37;;
7289;SDS011;63176;52.678;13.250;2023-06-22T03:20:59;11.63;;;10.00;;
7289;SDS011;63176;52.678;13.250;2023-06-22T03:23:27;12.73;;;9.40;;
7289;SDS011;63176;52.678;13.250;2023-06-22T03:25:52;13.23;;;9.77;;
7289;SDS011;63176;52.678;13.250;2023-06-22T03:28:20;11.50;;;9.23;;
7289;SDS011;63176;52.678;13.250;2023-06-22T03:30:46;14.10;;;10.40;;
7289;SDS011;63176;52.678;13.250;2023-06-22T03:33:12;11.73;;;9.60;;
7289;SDS011;63176;52.678;13.250;2023-06-22T03:35:37;13.50;;;9.80;;
7289;SDS011;63176;52.678;13.250;2023-06-22T03:38:03;11.90;;;9.67;;
7289;SDS011;63176;52.678;13.250;2023-06-22T03:40:29;14.00;;;10.67;;
7289;SDS011;63176;52.678;13.250;2023-06-22T03:42:55;11.87;;;9.80;;
7289;SDS011;63176;52.678;13.250;2023-06-22T03:45:20;15.87;;;10.27;;
7289;SDS011;63176;52.678;13.250;2023-06-22T03:47:46;10.57;;;9.33;;
7289;SDS011;63176;52.678;13.250;2023-06-22T03:50:12;14.20;;;10.37;;
7289;SDS011;63176;52.678;13.250;2023-06-22T03:52:38;14.20;;;10.77;;
7289;SDS011;63176;52.678;13.250;2023-06-22T03:55:05;11.90;;;9.60;;
7289;SDS011;63176;52.678;13.250;2023-06-22T03:57:31;14.60;;;11.37;;
7289;SDS011;63176;52.678;13.250;2023-06-22T03:59:57;12.10;;;10.23;;
7289;SDS011;63176;52.678;13.250;2023-06-22T04:02:23;11.80;;;9.37;;
7289;SDS011;63176;52.678;13.250;2023-06-22T04:04:49;10.60;;;9.50;;
7289;SDS011;63176;52.678;13.250;2023-06-22T04:07:15;13.43;;;9.33;;
7289;SDS011;63176;52.678;13.250;2023-06-22T04:09:41;17.20;;;10.00;;
7289;SDS011;63176;52.678;13.250;2023-06-22T04:12:06;12.50;;;10.00;;
7289;SDS011;63176;52.678;13.250;2023-06-22T04:14:32;13.60;;;9.67;;
7289;SDS011;63176;52.678;13.250;2023-06-22T04:16:58;13.43;;;9.63;;
7289;SDS011;63176;52.678;13.250;2023-06-22T04:19:24;12.70;;;9.70;;
7289;SDS011;63176;52.678;13.250;2023-06-22T04:21:49;10.90;;;9.13;;
7289;SDS011;63176;52.678;13.250;2023-06-22T04:24:15;12.10;;;9.33;;
7289;SDS011;63176;52.678;13.250;2023-06-22T04:26:41;11.50;;;10.03;;
7289;SDS011;63176;52.678;13.250;2023-06-22T04:29:10;13.17;;;9.53;;
7289;SDS011;63176;52.678;13.250;2023-06-22T04:31:36;10.10;;;9.00;;
7289;SDS011;63176;52.678;13.250;2023-06-22T04:34:02;12.10;;;9.33;;
7289;SDS011;63176;52.678;13.250;2023-06-22T04:36:36;13.00;;;9.57;;
7289;SDS011;63176;52.678;13.250;2023-06-22T04:39:10;11.37;;;9.20;;
7289;SDS011;63176;52.678;13.250;2023-06-22T04:41:36;13.40;;;9.13;;
7289;SDS011;63176;52.678;13.250;2023-06-22T04:44:09;11.47;;;10.03;;
7289;SDS011;63176;52.678;13.250;2023-06-22T04:46:34;11.20;;;9.63;;
7289;SDS011;63176;52.678;13.250;2023-06-22T04:49:06;12.60;;;8.80;;
7289;SDS011;63176;52.678;13.250;2023-06-22T04:51:39;12.70;;;8.97;;
7289;SDS011;63176;52.678;13.250;2023-06-22T04:54:06;10.73;;;9.00;;
7289;SDS011;63176;52.678;13.250;2023-06-22T04:56:32;12.73;;;8.90;;
7289;SDS011;63176;52.678;13.250;2023-06-22T04:58:58;10.67;;;8.80;;
7289;SDS011;63176;52.678;13.250;2023-06-22T05:01:24;11.67;;;8.33;;
7289;SDS011;63176;52.678;13.250;2023-06-22T05:03:50;10.90;;;6.77;;
7289;SDS011;63176;52.678;13.250;2023-06-22T05:06:21;8.43;;;6.03;;
7289;SDS011;63176;52.678;13.250;2023-06-22T05:08:49;7.73;;;6.83;;
7289;SDS011;63176;52.678;13.250;2023-06-22T05:11:16;8.53;;;5.83;;
7289;SDS011;63176;52.678;13.250;2023-06-22T05:13:42;10.63;;;5.80;;
7289;SDS011;63176;52.678;13.250;2023-06-22T05:16:07;7.00;;;5.70;;
7289;SDS011;63176;52.678;13.250;2023-06-22T05:18:33;6.43;;;5.83;;
7289;SDS011;63176;52.678;13.250;2023-06-22T05:20:59;7.10;;;5.90;;
7289;SDS011;63176;52.678;13.250;2023-06-22T05:23:25;8.83;;;4.90;;
7289;SDS011;63176;52.678;13.250;2023-06-22T05:25:51;7.70;;;5.03;;
7289;SDS011;63176;52.678;13.250;2023-06-22T05:28:16;5.33;;;4.40;;
7289;SDS011;63176;52.678;13.250;2023-06-22T05:30:47;9.07;;;5.03;;
7289;SDS011;63176;52.678;13.250;2023-06-22T05:33:13;6.00;;;4.40;;
7289;SDS011;63176;52.678;13.250;2023-06-22T05:35:39;6.60;;;5.10;;
7289;SDS011;63176;52.678;13.250;2023-06-22T05:38:04;5.90;;;4.67;;
7289;SDS011;63176;52.678;13.250;2023-06-22T05:40:30;9.93;;;4.87;;
7289;SDS011;63176;52.678;13.250;2023-06-22T05:42:55;7.10;;;6.40;;
7289;SDS011;63176;52.678;13.250;2023-06-22T05:45:21;4.80;;;4.40;;
7289;SDS011;63176;52.678;13.250;2023-06-22T05:47:47;6.57;;;4.27;;
7289;SDS011;63176;52.678;13.250;2023-06-22T05:50:12;11.70;;;4.13;;
7289;SDS011;63176;52.678;13.250;2023-06-22T05:52:38;4.27;;;3.67;;
7289;SDS011;63176;52.678;13.250;2023-06-22T05:55:03;7.00;;;4.47;;
7289;SDS011;63176;52.678;13.250;2023-06-22T05:57:29;11.40;;;4.50;;
7289;SDS011;63176;52.678;13.250;2023-06-22T05:59:55;5.00;;;4.00;;
7289;SDS011;63176;52.678;13.250;2023-06-22T06:02:21;4.30;;;3.90;;
7289;SDS011;63176;52.678;13.250;2023-06-22T06:04:46;4.47;;;4.03;;
7289;SDS011;63176;52.678;13.250;2023-06-22T06:07:12;5.43;;;4.00;;
7289;SDS011;63176;52.678;13.250;2023-06-22T06:09:38;4.50;;;3.63;;
7289;SDS011;63176;52.678;13.250;2023-06-22T06:12:03;4.20;;;3.40;;
7289;SDS011;63176;52.678;13.250;2023-06-22T06:14:29;5.73;;;3.90;;
7289;SDS011;63176;52.678;13.250;2023-06-22T06:16:55;8.13;;;3.93;;
7289;SDS011;63176;52.678;13.250;2023-06-22T06:19:20;3.60;;;3.30;;
7289;SDS011;63176;52.678;13.250;2023-06-22T06:21:46;5.20;;;3.67;;
7289;SDS011;63176;52.678;13.250;2023-06-22T06:24:11;4.30;;;3.70;;
7289;SDS011;63176;52.678;13.250;2023-06-22T06:26:37;3.97;;;3.17;;
7289;SDS011;63176;52.678;13.250;2023-06-22T06:29:03;3.70;;;3.17;;
7289;SDS011;63176;52.678;13.250;2023-06-22T06:31:29;11.30;;;3.77;;
7289;SDS011;63176;52.678;13.250;2023-06-22T06:33:55;6.17;;;3.80;;
7289;SDS011;63176;52.678;13.250;2023-06-22T06:36:21;4.87;;;3.90;;
7289;SDS011;63176;52.678;13.250;2023-06-22T06:38:46;5.07;;;3.20;;
7289;SDS011;63176;52.678;13.250;2023-06-22T06:41:15;5.03;;;3.70;;
7289;SDS011;63176;52.678;13.250;2023-06-22T06:43:41;4.83;;;3.50;;
7289;SDS011;63176;52.678;13.250;2023-06-22T06:46:08;4.40;;;3.43;;
7289;SDS011;63176;52.678;13.250;2023-06-22T06:48:34;4.70;;;3.67;;
7289;SDS011;63176;52.678;13.250;2023-06-22T06:51:00;8.70;;;3.50;;
7289;SDS011;63176;52.678;13.250;2023-06-22T06:53:25;3.60;;;3.30;;
7289;SDS011;63176;52.678;13.250;2023-06-22T06:55:51;5.73;;;3.80;;
7289;SDS011;63176;52.678;13.250;2023-06-22T06:58:17;3.50;;;3.20;;
7289;SDS011;63176;52.678;13.250;2023-06-22T07:00:43;3.37;;;3.07;;
7289;SDS011;63176;52.678;13.250;2023-06-22T07:03:09;5.50;;;3.23;;
7289;SDS011;63176;52.678;13.250;2023-06-22T07:05:34;3.60;;;2.80;;
7289;SDS011;63176;52.678;13.250;2023-06-22T07:08:00;5.13;;;3.13;;
7289;SDS011;63176;52.678;13.250;2023-06-22T07:10:26;4.80;;;2.40;;
7289;SDS011;63176;52.678;13.250;2023-06-22T07:12:52;5.93;;;2.57;;
7289;SDS011;63176;52.678;13.250;2023-06-22T07:15:17;3.80;;;2.70;;
7289;SDS011;63176;52.678;13.250;2023-06-22T07:17:43;9.00;;;2.67;;
7289;SDS011;63176;52.678;13.250;2023-06-22T07:20:09;2.80;;;2.40;;
7289;SDS011;63176;52.678;13.250;2023-06-22T07:22:37;4.37;;;2.60;;
7289;SDS011;63176;52.678;13.250;2023-06-22T07:25:07;3.20;;;1.90;;
7289;SDS011;63176;52.678;13.250;2023-06-22T07:27:39;2.83;;;2.10;;
7289;SDS011;63176;52.678;13.250;2023-06-22T07:30:26;4.10;;;2.53;;
7289;SDS011;63176;52.678;13.250;2023-06-22T07:32:53;2.93;;;2.23;;
7289;SDS011;63176;52.678;13.250;2023-06-22T07:35:18;1.83;;;1.67;;
7289;SDS011;63176;52.678;13.250;2023-06-22T07:37:44;4.17;;;2.20;;
7289;SDS011;63176;52.678;13.250;2023-06-22T07:40:10;1.77;;;1.67;;
7289;SDS011;63176;52.678;13.250;2023-06-22T07:42:36;2.30;;;2.10;;
7289;SDS011;63176;52.678;13.250;2023-06-22T07:45:06;2.03;;;1.90;;
7289;SDS011;63176;52.678;13.250;2023-06-22T07:47:35;2.13;;;1.90;;
7289;SDS011;63176;52.678;13.250;2023-06-22T07:50:01;4.10;;;2.00;;
7289;SDS011;63176;52.678;13.250;2023-06-22T07:52:28;1.83;;;1.73;;
7289;SDS011;63176;52.678;13.250;2023-06-22T07:54:53;2.07;;;1.90;;
7289;SDS011;63176;52.678;13.250;2023-06-22T07:57:20;2.27;;;2.07;;
7289;SDS011;63176;52.678;13.250;2023-06-22T07:59:46;2.27;;;1.73;;
7289;SDS011;63176;52.678;13.250;2023-06-22T08:02:11;2.30;;;2.10;;
7289;SDS011;63176;52.678;13.250;2023-06-22T08:04:37;3.00;;;2.30;;
7289;SDS011;63176;52.678;13.250;2023-06-22T08:07:03;3.13;;;2.10;;
7289;SDS011;63176;52.678;13.250;2023-06-22T08:09:30;2.30;;;1.90;;
7289;SDS011;63176;52.678;13.250;2023-06-22T08:11:57;3.47;;;2.50;;
7289;SDS011;63176;52.678;13.250;2023-06-22T08:14:24;3.87;;;2.60;;
7289;SDS011;63176;52.678;13.250;2023-06-22T08:16:51;3.70;;;2.93;;
7289;SDS011;63176;52.678;13.250;2023-06-22T08:19:16;2.30;;;2.10;;
7289;SDS011;63176;52.678;13.250;2023-06-22T08:21:42;2.23;;;2.03;;
7289;SDS011;63176;52.678;13.250;2023-06-22T08:24:08;2.37;;;1.90;;
7289;SDS011;63176;52.678;13.250;2023-06-22T08:26:34;2.87;;;2.53;;
7289;SDS011;63176;52.678;13.250;2023-06-22T08:29:04;3.00;;;2.23;;
7289;SDS011;63176;52.678;13.250;2023-06-22T08:31:30;2.00;;;1.90;;
7289;SDS011;63176;52.678;13.250;2023-06-22T08:33:58;2.20;;;2.00;;
7289;SDS011;63176;52.678;13.250;2023-06-22T08:36:23;4.17;;;2.33;;
7289;SDS011;63176;52.678;13.250;2023-06-22T08:38:49;4.10;;;1.90;;
7289;SDS011;63176;52.678;13.250;2023-06-22T08:41:16;2.60;;;2.40;;
7289;SDS011;63176;52.678;13.250;2023-06-22T08:43:42;3.10;;;2.20;;
7289;SDS011;63176;52.678;13.250;2023-06-22T08:46:11;2.47;;;2.23;;
7289;SDS011;63176;52.678;13.250;2023-06-22T08:48:37;3.50;;;2.80;;
7289;SDS011;63176;52.678;13.250;2023-06-22T08:51:04;2.40;;;2.20;;
7289;SDS011;63176;52.678;13.250;2023-06-22T08:53:29;5.53;;;2.40;;
7289;SDS011;63176;52.678;13.250;2023-06-22T08:55:55;4.03;;;3.00;;
7289;SDS011;63176;52.678;13.250;2023-06-22T08:58:21;3.10;;;2.40;;
7289;SDS011;63176;52.678;13.250;2023-06-22T09:00:47;2.40;;;2.17;;
7289;SDS011;63176;52.678;13.250;2023-06-22T09:03:13;5.73;;;2.43;;
7289;SDS011;63176;52.678;13.250;2023-06-22T09:05:39;2.70;;;2.00;;
7289;SDS011;63176;52.678;13.250;2023-06-22T09:08:05;2.40;;;2.10;;
7289;SDS011;63176;52.678;13.250;2023-06-22T09:10:31;2.80;;;2.03;;
7289;SDS011;63176;52.678;13.250;2023-06-22T09:12:57;3.73;;;2.20;;
7289;SDS011;63176;52.678;13.250;2023-06-22T09:15:22;2.17;;;1.90;;
7289;SDS011;63176;52.678;13.250;2023-06-22T09:17:48;2.67;;;2.47;;
7289;SDS011;63176;52.678;13.250;2023-06-22T09:20:14;3.43;;;2.60;;
7289;SDS011;63176;52.678;13.250;2023-06-22T09:22:40;3.27;;;1.83;;
7289;SDS011;63176;52.678;13.250;2023-06-22T09:25:06;5.67;;;1.90;;
7289;SDS011;63176;52.678;13.250;2023-06-22T09:27:32;3.50;;;2.03;;
7289;SDS011;63176;52.678;13.250;2023-06-22T09:29:58;2.37;;;2.17;;
7289;SDS011;63176;52.678;13.250;2023-06-22T09:32:24;2.10;;;1.90;;
7289;SDS011;63176;52.678;13.250;2023-06-22T09:34:50;3.20;;;2.17;;
7289;SDS011;63176;52.678;13.250;2023-06-22T09:37:16;3.47;;;2.23;;
7289;SDS011;63176;52.678;13.250;2023-06-22T09:39:42;2.10;;;1.90;;
7289;SDS011;63176;52.678;13.250;2023-06-22T09:42:07;2.77;;;2.10;;
7289;SDS011;63176;52.678;13.250;2023-06-22T09:44:33;3.03;;;2.20;;
7289;SDS011;63176;52.678;13.250;2023-06-22T09:46:59;2.37;;;2.20;;
7289;SDS011;63176;52.678;13.250;2023-06-22T09:49:25;2.90;;;2.50;;
7289;SDS011;63176;52.678;13.250;2023-06-22T09:51:51;2.50;;;2.07;;
7289;SDS011;63176;52.678;13.250;2023-06-22T09:54:17;2.13;;;1.80;;
7289;SDS011;63176;52.678;13.250;2023-06-22T09:56:43;2.70;;;2.50;;
7289;SDS011;63176;52.678;13.250;2023-06-22T09:59:08;3.70;;;2.13;;
7289;SDS011;63176;52.678;13.250;2023-06-22T10:01:34;1.90;;;1.70;;
7289;SDS011;63176;52.678;13.250;2023-06-22T10:04:00;2.10;;;1.90;;
7289;SDS011;63176;52.678;13.250;2023-06-22T10:06:27;2.23;;;1.83;;
7289;SDS011;63176;52.678;13.250;2023-06-22T10:08:52;3.20;;;2.10;;
7289;SDS011;63176;52.678;13.250;2023-06-22T10:11:18;2.27;;;1.90;;
7289;SDS011;63176;52.678;13.250;2023-06-22T10:13:44;3.20;;;2.10;;
7289;SDS011;63176;52.678;13.250;2023-06-22T10:16:10;1.77;;;1.67;;
7289;SDS011;63176;52.678;13.250;2023-06-22T10:18:35;1.93;;;1.60;;
7289;SDS011;63176;52.678;13.250;2023-06-22T10:21:01;2.20;;;1.87;;
7289;SDS011;63176;52.678;13.250;2023-06-22T10:23:27;2.30;;;1.77;;
7289;SDS011;63176;52.678;13.250;2023-06-22T10:25:53;1.87;;;1.77;;
7289;SDS011;63176;52.678;13.250;2023-06-22T10:28:18;2.10;;;1.90;;
7289;SDS011;63176;52.678;13.250;2023-06-22T10:30:44;21.27;;;2.43;;
7289;SDS011;63176;52.678;13.250;2023-06-22T10:33:10;3.10;;;2.80;;
7289;SDS011;63176;52.678;13.250;2023-06-22T10:35:36;1.60;;;1.50;;
7289;SDS011;63176;52.678;13.250;2023-06-22T10:38:05;5.23;;;2.47;;
7289;SDS011;63176;52.678;13.250;2023-06-22T10:40:31;2.30;;;1.97;;
7289;SDS011;63176;52.678;13.250;2023-06-22T10:42:57;2.80;;;2.30;;
7289;SDS011;63176;52.678;13.250;2023-06-22T10:45:22;2.27;;;2.03;;
7289;SDS011;63176;52.678;13.250;2023-06-22T10:47:48;1.70;;;1.60;;
7289;SDS011;63176;52.678;13.250;2023-06-22T10:50:14;2.63;;;2.43;;
7289;SDS011;63176;52.678;13.250;2023-06-22T10:52:39;3.80;;;2.50;;
7289;SDS011;63176;52.678;13.250;2023-06-22T10:55:06;3.00;;;2.50;;
7289;SDS011;63176;52.678;13.250;2023-06-22T10:57:33;3.00;;;2.70;;
7289;SDS011;63176;52.678;13.250;2023-06-22T10:59:59;3.20;;;2.37;;
7289;SDS011;63176;52.678;13.250;2023-06-22T11:02:24;3.00;;;2.80;;
7289;SDS011;63176;52.678;13.250;2023-06-22T11:04:50;3.20;;;2.10;;
7289;SDS011;63176;52.678;13.250;2023-06-22T11:07:16;3.83;;;2.47;;
7289;SDS011;63176;52.678;13.250;2023-06-22T11:09:45;2.13;;;2.03;;
7289;SDS011;63176;52.678;13.250;2023-06-22T11:12:11;3.53;;;2.30;;
7289;SDS011;63176;52.678;13.250;2023-06-22T11:14:36;2.50;;;2.30;;
7289;SDS011;63176;52.678;13.250;2023-06-22T11:17:03;3.23;;;2.80;;
7289;SDS011;63176;52.678;13.250;2023-06-22T11:19:29;8.70;;;2.80;;
7289;SDS011;63176;52.678;13.250;2023-06-22T11:21:54;2.90;;;2.60;;
7289;SDS011;63176;52.678;13.250;2023-06-22T11:24:20;2.30;;;2.10;;
7289;SDS011;63176;52.678;13.250;2023-06-22T11:26:46;4.73;;;2.77;;
7289;SDS011;63176;52.678;13.250;2023-06-22T11:29:11;3.90;;;2.60;;
7289;SDS011;63176;52.678;13.250;2023-06-22T11:31:37;2.33;;;2.13;;
7289;SDS011;63176;52.678;13.250;2023-06-22T11:34:03;2.90;;;2.53;;
7289;SDS011;63176;52.678;13.250;2023-06-22T11:36:29;6.10;;;2.50;;
7289;SDS011;63176;52.678;13.250;2023-06-22T11:38:57;2.80;;;2.60;;
7289;SDS011;63176;52.678;13.250;2023-06-22T11:41:23;3.10;;;2.83;;
7289;SDS011;63176;52.678;13.250;2023-06-22T11:43:48;2.80;;;2.40;;
7289;SDS011;63176;52.678;13.250;2023-06-22T11:46:14;3.30;;;2.70;;
7289;SDS011;63176;52.678;13.250;2023-06-22T11:48:40;5.40;;;2.40;;
7289;SDS011;63176;52.678;13.250;2023-06-22T11:51:05;2.90;;;2.70;;
7289;SDS011;63176;52.678;13.250;2023-06-22T11:53:33;2.90;;;2.70;;
7289;SDS011;63176;52.678;13.250;2023-06-22T11:56:00;3.70;;;3.23;;
7289;SDS011;63176;52.678;13.250;2023-06-22T11:58:26;3.13;;;2.83;;
7289;SDS011;63176;52.678;13.250;2023-06-22T12:00:51;4.93;;;3.17;;
7289;SDS011;63176;52.678;13.250;2023-06-22T12:03:17;5.00;;;2.93;;
7289;SDS011;63176;52.678;13.250;2023-06-22T12:05:44;3.17;;;2.87;;
7289;SDS011;63176;52.678;13.250;2023-06-22T12:08:09;3.30;;;3.00;;
7289;SDS011;63176;52.678;13.250;2023-06-22T12:10:35;4.90;;;3.17;;
7289;SDS011;63176;52.678;13.250;2023-06-22T12:13:00;3.20;;;2.90;;
7289;SDS011;63176;52.678;13.250;2023-06-22T12:15:26;3.23;;;2.87;;
7289;SDS011;63176;52.678;13.250;2023-06-22T12:17:52;2.80;;;2.60;;
7289;SDS011;63176;52.678;13.250;2023-06-22T12:20:18;3.67;;;2.70;;
7289;SDS011;63176;52.678;13.250;2023-06-22T12:22:43;3.90;;;2.70;;
7289;SDS011;63176;52.678;13.250;2023-06-22T12:25:10;3.33;;;2.70;;
7289;SDS011;63176;52.678;13.250;2023-06-22T12:27:36;2.50;;;2.30;;
7289;SDS011;63176;52.678;13.250;2023-06-22T12:30:02;3.00;;;2.43;;
7289;SDS011;63176;52.678;13.250;2023-06-22T12:32:29;2.47;;;2.27;;
7289;SDS011;63176;52.678;13.250;2023-06-22T12:34:55;2.27;;;2.17;;
7289;SDS011;63176;52.678;13.250;2023-06-22T12:37:21;10.13;;;2.90;;
7289;SDS011;63176;52.678;13.250;2023-06-22T12:39:47;2.80;;;2.60;;
7289;SDS011;63176;52.678;13.250;2023-06-22T12:42:14;3.10;;;2.80;;
7289;SDS011;63176;52.678;13.250;2023-06-22T12:44:40;2.70;;;2.50;;
7289;SDS011;63176;52.678;13.250;2023-06-22T12:47:06;3.20;;;2.57;;
7289;SDS011;63176;52.678;13.250;2023-06-22T12:49:33;2.23;;;2.10;;
7289;SDS011;63176;52.678;13.250;2023-06-22T12:52:00;2.50;;;2.30;;
7289;SDS011;63176;52.678;13.250;2023-06-22T12:54:26;2.37;;;2.17;;
7289;SDS011;63176;52.678;13.250;2023-06-22T12:56:51;2.80;;;2.60;;
7289;SDS011;63176;52.678;13.250;2023-06-22T12:59:17;3.20;;;2.90;;
7289;SDS011;63176;52.678;13.250;2023-06-22T13:01:43;2.90;;;2.70;;
7289;SDS011;63176;52.678;13.250;2023-06-22T13:04:10;5.40;;;2.23;;
7289;SDS011;63176;52.678;13.250;2023-06-22T13:06:39;2.77;;;2.57;;
7289;SDS011;63176;52.678;13.250;2023-06-22T13:09:09;3.47;;;2.63;;
7289;SDS011;63176;52.678;13.250;2023-06-22T13:11:35;3.60;;;2.93;;
7289;SDS011;63176;52.678;13.250;2023-06-22T13:14:01;5.13;;;2.97;;
7289;SDS011;63176;52.678;13.250;2023-06-22T13:16:26;2.97;;;2.60;;
7289;SDS011;63176;52.678;13.250;2023-06-22T13:18:52;3.23;;;3.03;;
7289;SDS011;63176;52.678;13.250;2023-06-22T13:21:17;3.90;;;2.77;;
7289;SDS011;63176;52.678;13.250;2023-06-22T13:23:43;6.10;;;2.97;;
7289;SDS011;63176;52.678;13.250;2023-06-22T13:26:09;2.90;;;2.70;;
7289;SDS011;63176;52.678;13.250;2023-06-22T13:28:34;3.07;;;2.87;;
7289;SDS011;63176;52.678;13.250;2023-06-22T13:31:00;3.00;;;2.80;;
7289;SDS011;63176;52.678;13.250;2023-06-22T13:33:25;3.20;;;3.00;;
7289;SDS011;63176;52.678;13.250;2023-06-22T13:35:51;2.77;;;2.57;;
7289;SDS011;63176;52.678;13.250;2023-06-22T13:38:16;2.37;;;2.07;;
7289;SDS011;63176;52.678;13.250;2023-06-22T13:40:42;2.90;;;2.70;;
7289;SDS011;63176;52.678;13.250;2023-06-22T13:43:08;2.47;;;2.27;;
7289;SDS011;63176;52.678;13.250;2023-06-22T13:45:34;3.83;;;3.33;;
7289;SDS011;63176;52.678;13.250;2023-06-22T13:48:00;3.07;;;2.87;;
7289;SDS011;63176;52.678;13.250;2023-06-22T13:50:25;3.80;;;3.50;;
7289;SDS011;63176;52.678;13.250;2023-06-22T13:52:51;2.93;;;2.70;;
7289;SDS011;63176;52.678;13.250;2023-06-22T13:55:17;2.97;;;2.77;;
7289;SDS011;63176;52.678;13.250;2023-06-22T13:57:42;3.33;;;3.00;;
7289;SDS011;63176;52.678;13.250;2023-06-22T14:00:08;2.73;;;2.53;;
7289;SDS011;63176;52.678;13.250;2023-06-22T14:02:34;2.30;;;2.20;;
7289;SDS011;63176;52.678;13.250;2023-06-22T14:05:00;2.90;;;2.70;;
7289;SDS011;63176;52.678;13.250;2023-06-22T14:07:27;4.20;;;3.23;;
7289;SDS011;63176;52.678;13.250;2023-06-22T14:09:53;3.07;;;2.77;;
7289;SDS011;63176;52.678;13.250;2023-06-22T14:12:18;5.07;;;3.60;;
7289;SDS011;63176;52.678;13.250;2023-06-22T14:14:44;3.40;;;3.10;;
7289;SDS011;63176;52.678;13.250;2023-06-22T14:17:09;3.30;;;3.00;;
7289;SDS011;63176;52.678;13.250;2023-06-22T14:19:35;3.20;;;3.00;;
7289;SDS011;63176;52.678;13.250;2023-06-22T14:22:01;5.00;;;2.80;;
7289;SDS011;63176;52.678;13.250;2023-06-22T14:24:27;2.83;;;2.63;;
7289;SDS011;63176;52.678;13.250;2023-06-22T14:26:53;3.70;;;3.40;;
7289;SDS011;63176;52.678;13.250;2023-06-22T14:29:20;2.87;;;2.67;;
7289;SDS011;63176;52.678;13.250;2023-06-22T14:31:46;10.10;;;2.57;;
7289;SDS011;63176;52.678;13.250;2023-06-22T14:34:12;2.83;;;2.60;;
7289;SDS011;63176;52.678;13.250;2023-06-22T14:36:38;3.30;;;3.10;;
7289;SDS011;63176;52.678;13.250;2023-06-22T14:39:03;3.00;;;2.80;;
7289;SDS011;63176;52.678;13.250;2023-06-22T14:41:30;4.17;;;3.07;;
7289;SDS011;63176;52.678;13.250;2023-06-22T14:43:56;2.70;;;2.50;;
7289;SDS011;63176;52.678;13.250;2023-06-22T14:46:21;3.10;;;2.90;;
7289;SDS011;63176;52.678;13.250;2023-06-22T14:48:47;3.93;;;3.03;;
7289;SDS011;63176;52.678;13.250;2023-06-22T14:51:13;2.77;;;2.60;;
7289;SDS011;63176;52.678;13.250;2023-06-22T14:53:39;2.90;;;2.70;;